Time;durP1;ratioP1;P1;durP2;ratioP2;P2;SDS_P1;SDS_P2;PMS_P1;PMS_P2;Temp;Humidity;BMP_temperature;BMP_pressure;BME280_temperature;BME280_humidity;BME280_pressure;Samples;Min_cycle;Max_cycle;Signal;HPM_P1;HPM_P2
2023/02/15 00:01:57;;;;;;;24.90;18.10;;;;;;;;;;5115039;28;20970;-56
2023/02/15 00:04:45;;;;;;;23.83;17.63;;;;;;;;;;5115179;28;20934;-57
2023/02/15 00:07:12;;;;;;;26.20;18.30;;;;;;;;;;5114818;28;20437;-57
2023/02/15 00:09:39;;;;;;;24.70;19.00;;;;;;;;;;5115064;28;20444;-57
2023/02/15 00:12:07;;;;;;;28.60;18.43;;;;;;;;;;5114827;28;20444;-56
2023/02/15 00:14:34;;;;;;;24.63;17.40;;;;;;;;;;5114605;28;20450;-58
2023/02/15 00:17:01;;;;;;;24.33;17.97;;;;;;;;;;5114952;28;20452;-56
2023/02/15 00:19:28;;;;;;;24.47;16.83;;;;;;;;;;5114958;28;20475;-56
2023/02/15 00:21:55;;;;;;;25.53;17.10;;;;;;;;;;5114934;28;20452;-57
2023/02/15 00:24:22;;;;;;;26.57;17.70;;;;;;;;;;5114598;28;20448;-57
2023/02/15 00:26:49;;;;;;;23.50;17.67;;;;;;;;;;5114559;28;20455;-54
2023/02/15 00:29:18;;;;;;;24.90;16.60;;;;;;;;;;5114780;28;21028;-56
2023/02/15 00:31:45;;;;;;;23.48;16.95;;;;;;;;;;5114705;28;20190;-55
2023/02/15 00:34:13;;;;;;;25.03;17.33;;;;;;;;;;5114500;28;20222;-56
2023/02/15 00:36:41;;;;;;;26.00;17.60;;;;;;;;;;5114545;28;20457;-57
2023/02/15 00:39:09;;;;;;;22.85;16.27;;;;;;;;;;5114464;28;20445;-56
2023/02/15 00:41:36;;;;;;;25.10;16.70;;;;;;;;;;5114264;28;20191;-55
2023/02/15 00:44:03;;;;;;;25.98;16.52;;;;;;;;;;5114433;28;20458;-57
2023/02/15 00:46:31;;;;;;;27.00;17.00;;;;;;;;;;5114073;28;20232;-56
2023/02/15 00:48:58;;;;;;;22.38;16.48;;;;;;;;;;5114612;28;20194;-55
2023/02/15 00:51:25;;;;;;;24.13;17.30;;;;;;;;;;5114156;28;20200;-55
2023/02/15 00:53:52;;;;;;;25.63;16.92;;;;;;;;;;5113955;28;20576;-55
2023/02/15 00:56:19;;;;;;;25.33;17.42;;;;;;;;;;5114317;28;20191;-57
2023/02/15 00:58:46;;;;;;;26.35;19.15;;;;;;;;;;5113621;28;20271;-55
2023/02/15 01:01:14;;;;;;;25.17;17.50;;;;;;;;;;5114126;28;20191;-55
2023/02/15 01:03:43;;;;;;;24.27;17.75;;;;;;;;;;5113928;28;20543;-56
2023/02/15 01:06:10;;;;;;;21.83;15.70;;;;;;;;;;5114007;28;20285;-56
2023/02/15 01:08:37;;;;;;;25.67;17.45;;;;;;;;;;5113805;28;20251;-57
2023/02/15 01:11:05;;;;;;;23.27;16.25;;;;;;;;;;5114180;28;20217;-57
2023/02/15 01:13:32;;;;;;;23.57;16.70;;;;;;;;;;5113852;28;20214;-57
2023/02/15 01:15:59;;;;;;;25.60;16.60;;;;;;;;;;5113840;28;20559;-57
2023/02/15 01:18:26;;;;;;;25.58;17.33;;;;;;;;;;5113721;28;20266;-55
2023/02/15 01:20:54;;;;;;;23.30;16.05;;;;;;;;;;5113684;28;20285;-55
2023/02/15 01:23:21;;;;;;;26.40;16.58;;;;;;;;;;5113591;28;20288;-58
2023/02/15 01:25:48;;;;;;;21.05;15.88;;;;;;;;;;5113728;28;20186;-56
2023/02/15 01:28:15;;;;;;;21.23;15.73;;;;;;;;;;5113728;28;20195;-56
2023/02/15 01:30:42;;;;;;;25.50;16.35;;;;;;;;;;5113567;28;20197;-56
2023/02/15 01:33:17;;;;;;;24.48;16.05;;;;;;;;;;5113421;28;20625;-56
2023/02/15 01:35:44;;;;;;;26.50;15.60;;;;;;;;;;5113452;28;20189;-56
2023/02/15 01:38:12;;;;;;;25.58;16.67;;;;;;;;;;5113700;28;20883;-54
2023/02/15 01:40:39;;;;;;;23.95;16.75;;;;;;;;;;5113556;28;20232;-57
2023/02/15 01:43:10;;;;;;;27.02;17.30;;;;;;;;;;5113455;28;20717;-57
2023/02/15 01:45:37;;;;;;;22.55;16.52;;;;;;;;;;5113267;28;20232;-57
2023/02/15 01:48:05;;;;;;;27.20;16.80;;;;;;;;;;5113330;28;20189;-54
2023/02/15 01:50:34;;;;;;;25.90;16.58;;;;;;;;;;5113185;28;20281;-56
2023/02/15 01:53:05;;;;;;;24.58;17.05;;;;;;;;;;5113380;28;20227;-56
2023/02/15 01:55:35;;;;;;;25.48;15.82;;;;;;;;;;5113436;28;20215;-57
2023/02/15 01:58:02;;;;;;;24.40;17.02;;;;;;;;;;5113279;28;20651;-56
2023/02/15 02:00:29;;;;;;;26.83;16.20;;;;;;;;;;5113193;28;20186;-57
2023/02/15 02:02:57;;;;;;;21.88;15.10;;;;;;;;;;5113158;28;20686;-56
2023/02/15 02:05:24;;;;;;;31.38;17.85;;;;;;;;;;5113350;28;20277;-55
2023/02/15 02:07:53;;;;;;;28.77;17.90;;;;;;;;;;5113063;28;20692;-56
2023/02/15 02:10:22;;;;;;;28.48;17.65;;;;;;;;;;5113333;28;20201;-57
2023/02/15 02:12:51;;;;;;;23.95;15.63;;;;;;;;;;5117137;28;20558;-54
2023/02/15 02:15:18;;;;;;;23.85;16.13;;;;;;;;;;5117054;28;20212;-56
2023/02/15 02:17:54;;;;;;;24.60;17.20;;;;;;;;;;5117362;28;20664;-55
2023/02/15 02:20:37;;;;;;;27.85;18.17;;;;;;;;;;5117262;28;20283;-56
2023/02/15 02:23:16;;;;;;;29.52;17.17;;;;;;;;;;5117050;28;20243;-56
2023/02/15 02:25:53;;;;;;;25.77;16.58;;;;;;;;;;5117016;28;20708;-51
2023/02/15 02:28:30;;;;;;;23.35;16.05;;;;;;;;;;5117273;28;20281;-57
2023/02/15 02:31:10;;;;;;;25.73;16.75;;;;;;;;;;5117071;28;20186;-55
2023/02/15 02:33:44;;;;;;;28.50;17.70;;;;;;;;;;5116792;28;20228;-55
2023/02/15 02:36:17;;;;;;;24.90;16.33;;;;;;;;;;5116757;28;20201;-56
2023/02/15 02:38:49;;;;;;;28.65;17.80;;;;;;;;;;5116931;28;20190;-56
2023/02/15 02:41:19;;;;;;;25.70;16.48;;;;;;;;;;5116865;28;20224;-55
2023/02/15 02:43:49;;;;;;;24.65;17.08;;;;;;;;;;5116667;28;20218;-56
2023/02/15 02:46:19;;;;;;;26.17;17.08;;;;;;;;;;5116465;28;20287;-56
2023/02/15 02:48:47;;;;;;;26.83;16.75;;;;;;;;;;5116500;28;20654;-54
2023/02/15 02:51:20;;;;;;;27.40;17.15;;;;;;;;;;5116697;28;20186;-56
2023/02/15 02:53:47;;;;;;;26.25;16.10;;;;;;;;;;5116402;28;20221;-57
2023/02/15 02:56:19;;;;;;;31.27;17.98;;;;;;;;;;5116548;28;20197;-54
2023/02/15 02:58:48;;;;;;;25.85;17.30;;;;;;;;;;5116350;28;20189;-56
2023/02/15 03:01:17;;;;;;;24.98;15.75;;;;;;;;;;5116247;28;20196;-55
2023/02/15 03:03:46;;;;;;;25.52;17.27;;;;;;;;;;5116368;28;20281;-57
2023/02/15 03:06:17;;;;;;;27.98;18.65;;;;;;;;;;5116367;28;20193;-55
2023/02/15 03:08:48;;;;;;;28.02;17.05;;;;;;;;;;5116239;28;20208;-55
2023/02/15 03:11:15;;;;;;;30.73;18.08;;;;;;;;;;5116266;28;20794;-56
2023/02/15 03:13:42;;;;;;;24.38;17.23;;;;;;;;;;5115832;28;20225;-56
2023/02/15 03:16:28;;;;;;;26.15;16.85;;;;;;;;;;5116164;28;20191;-56
2023/02/15 03:18:57;;;;;;;29.08;18.13;;;;;;;;;;5116052;28;20194;-55
2023/02/15 03:21:29;;;;;;;29.05;17.73;;;;;;;;;;5115320;28;20193;-55
2023/02/15 03:23:58;;;;;;;30.73;17.30;;;;;;;;;;5115744;28;20675;-56
2023/02/15 03:26:26;;;;;;;28.65;17.98;;;;;;;;;;5116014;28;20625;-56
2023/02/15 03:28:56;;;;;;;29.73;18.02;;;;;;;;;;5115686;28;20191;-54
2023/02/15 03:31:25;;;;;;;29.30;18.98;;;;;;;;;;5116124;28;20190;-55
2023/02/15 03:33:53;;;;;;;29.55;17.77;;;;;;;;;;5115517;28;20221;-53
2023/02/15 03:36:22;;;;;;;32.83;18.88;;;;;;;;;;5115621;28;20630;-56
2023/02/15 03:38:53;;;;;;;30.98;19.08;;;;;;;;;;5115548;28;20558;-56
2023/02/15 03:41:21;;;;;;;30.00;17.92;;;;;;;;;;5115715;28;20192;-57
2023/02/15 03:43:51;;;;;;;30.70;18.67;;;;;;;;;;5115599;28;20190;-57
2023/02/15 03:46:21;;;;;;;30.70;18.88;;;;;;;;;;5115324;28;20225;-56
2023/02/15 03:48:50;;;;;;;26.63;18.35;;;;;;;;;;5115458;28;20189;-54
2023/02/15 03:51:34;;;;;;;34.47;20.52;;;;;;;;;;5115311;28;20195;-56
2023/02/15 03:54:03;;;;;;;29.23;18.60;;;;;;;;;;5115327;28;20216;-55
2023/02/15 03:56:30;;;;;;;36.38;19.90;;;;;;;;;;5115372;28;20200;-54
2023/02/15 04:02:00;;;;;;;33.80;20.20;;;;;;;;;;5115150;28;20333;-57
2023/02/15 04:04:31;;;;;;;31.35;18.13;;;;;;;;;;5115179;28;20186;-56
2023/02/15 04:06:58;;;;;;;32.10;20.50;;;;;;;;;;5115120;28;20189;-57
2023/02/15 04:12:11;;;;;;;34.30;20.20;;;;;;;;;;5115053;28;20239;-56
2023/02/15 04:17:23;;;;;;;33.78;21.00;;;;;;;;;;5114867;28;20196;-55
2023/02/15 04:25:20;;;;;;;37.67;20.50;;;;;;;;;;5114690;28;20192;-57
2023/02/15 04:27:49;;;;;;;33.55;19.83;;;;;;;;;;5114631;28;20276;-56
2023/02/15 04:30:18;;;;;;;35.13;20.27;;;;;;;;;;5114564;28;20284;-55
2023/02/15 04:32:44;;;;;;;34.13;19.20;;;;;;;;;;5114244;28;20228;-57
2023/02/15 04:35:12;;;;;;;37.45;20.80;;;;;;;;;;5113808;28;20226;-55
2023/02/15 04:37:39;;;;;;;39.08;20.30;;;;;;;;;;5114468;28;20271;-53
2023/02/15 04:40:07;;;;;;;37.13;19.40;;;;;;;;;;5114383;28;20190;-57
2023/02/15 04:42:35;;;;;;;33.38;20.40;;;;;;;;;;5114354;28;20190;-57
2023/02/15 04:45:02;;;;;;;35.72;20.40;;;;;;;;;;5114027;28;20232;-56
2023/02/15 04:47:29;;;;;;;30.52;18.85;;;;;;;;;;5114071;28;20220;-57
2023/02/15 04:49:56;;;;;;;29.85;17.80;;;;;;;;;;5114306;28;20196;-56
2023/02/15 04:52:23;;;;;;;33.72;19.02;;;;;;;;;;5114252;28;20560;-54
2023/02/15 04:54:50;;;;;;;33.03;20.05;;;;;;;;;;5114386;28;20308;-56
2023/02/15 04:57:17;;;;;;;32.63;20.27;;;;;;;;;;5114130;28;20194;-57
2023/02/15 04:59:45;;;;;;;37.70;21.17;;;;;;;;;;5113870;28;20190;-55
2023/02/15 05:02:12;;;;;;;33.72;20.65;;;;;;;;;;5114172;28;20624;-56
2023/02/15 05:04:39;;;;;;;35.83;21.23;;;;;;;;;;5113915;28;20648;-55
2023/02/15 05:07:06;;;;;;;30.73;18.90;;;;;;;;;;5113970;28;20184;-56
2023/02/15 05:09:33;;;;;;;38.10;20.20;;;;;;;;;;5113886;28;20190;-57
2023/02/15 05:12:00;;;;;;;40.75;21.60;;;;;;;;;;5113794;28;20188;-54
2023/02/15 05:14:27;;;;;;;34.03;20.50;;;;;;;;;;5113569;28;20215;-56
2023/02/15 05:16:55;;;;;;;32.25;19.83;;;;;;;;;;5113928;28;20192;-56
2023/02/15 05:19:24;;;;;;;33.30;20.40;;;;;;;;;;5113867;28;20196;-54
2023/02/15 05:21:51;;;;;;;36.80;20.92;;;;;;;;;;5113631;28;20228;-56
2023/02/15 05:29:47;;;;;;;35.20;21.63;;;;;;;;;;5113629;28;20195;-56
2023/02/15 05:32:15;;;;;;;36.60;18.92;;;;;;;;;;5113429;28;20280;-57
2023/02/15 05:34:42;;;;;;;39.25;21.38;;;;;;;;;;5113458;28;20221;-57
2023/02/15 05:37:09;;;;;;;33.17;20.50;;;;;;;;;;5113068;28;20192;-54
2023/02/15 05:39:36;;;;;;;33.50;20.67;;;;;;;;;;5113306;28;20246;-56
2023/02/15 05:42:03;;;;;;;40.65;23.27;;;;;;;;;;5113362;28;20197;-55
2023/02/15 05:44:30;;;;;;;34.47;21.23;;;;;;;;;;5112858;28;20660;-55
2023/02/15 05:46:57;;;;;;;37.72;21.90;;;;;;;;;;5113260;28;20724;-56
2023/02/15 05:49:26;;;;;;;40.53;21.95;;;;;;;;;;5113512;28;20276;-55
2023/02/15 05:51:52;;;;;;;44.72;24.45;;;;;;;;;;5113376;28;20193;-60
2023/02/15 05:54:19;;;;;;;41.80;25.00;;;;;;;;;;5113060;28;20675;-57
2023/02/15 05:56:46;;;;;;;42.90;24.25;;;;;;;;;;5113279;28;20279;-57
2023/02/15 05:59:13;;;;;;;51.55;24.60;;;;;;;;;;5113274;28;20195;-55
2023/02/15 06:01:40;;;;;;;46.47;24.30;;;;;;;;;;5113099;28;20280;-56
2023/02/15 06:04:07;;;;;;;42.10;23.88;;;;;;;;;;5113114;28;20257;-56
2023/02/15 06:06:35;;;;;;;46.03;25.65;;;;;;;;;;5113051;28;20190;-53
2023/02/15 06:09:02;;;;;;;43.22;23.40;;;;;;;;;;5113194;28;20227;-54
2023/02/15 06:11:29;;;;;;;50.10;23.27;;;;;;;;;;5113073;28;20279;-56
2023/02/15 06:13:56;;;;;;;45.28;23.83;;;;;;;;;;5112794;28;20190;-56
2023/02/15 06:16:23;;;;;;;55.20;26.73;;;;;;;;;;5112974;28;20192;-55
2023/02/15 06:18:50;;;;;;;44.15;23.15;;;;;;;;;;5112864;28;20197;-58
2023/02/15 06:21:17;;;;;;;51.55;25.10;;;;;;;;;;5112947;28;20648;-56
2023/02/15 06:23:45;;;;;;;47.35;24.92;;;;;;;;;;5112765;28;20720;-57
2023/02/15 06:26:12;;;;;;;48.72;24.13;;;;;;;;;;5113010;28;20192;-55
2023/02/15 06:28:40;;;;;;;46.70;23.73;;;;;;;;;;5112804;28;20197;-56
2023/02/15 06:31:08;;;;;;;44.72;26.25;;;;;;;;;;5112806;28;20643;-57
2023/02/15 06:33:34;;;;;;;48.17;25.98;;;;;;;;;;5112667;28;20189;-55
2023/02/15 06:36:03;;;;;;;52.72;25.05;;;;;;;;;;5112797;28;20249;-55
2023/02/15 06:38:30;;;;;;;49.03;26.33;;;;;;;;;;5112921;28;20215;-57
2023/02/15 06:40:58;;;;;;;51.03;25.90;;;;;;;;;;5112802;28;20189;-57
2023/02/15 06:43:25;;;;;;;48.15;26.00;;;;;;;;;;5112561;28;20192;-53
2023/02/15 06:45:52;;;;;;;60.58;28.80;;;;;;;;;;5112529;28;20691;-55
2023/02/15 06:48:19;;;;;;;42.97;23.20;;;;;;;;;;5112481;28;20188;-57
2023/02/15 06:50:46;;;;;;;55.65;25.48;;;;;;;;;;5112649;28;20234;-56
2023/02/15 06:53:13;;;;;;;42.33;26.20;;;;;;;;;;5112656;28;20192;-56
2023/02/15 06:55:40;;;;;;;47.78;26.15;;;;;;;;;;5112486;28;20227;-54
2023/02/15 06:58:08;;;;;;;53.22;24.75;;;;;;;;;;5115168;28;20189;-56
2023/02/15 07:00:35;;;;;;;46.08;24.60;;;;;;;;;;5116063;28;20193;-57
2023/02/15 07:03:02;;;;;;;48.33;24.83;;;;;;;;;;5115964;28;20296;-56
2023/02/15 07:05:30;;;;;;;51.83;22.95;;;;;;;;;;5116158;28;20253;-54
2023/02/15 07:07:57;;;;;;;57.15;23.55;;;;;;;;;;5116149;28;20193;-55
2023/02/15 07:10:25;;;;;;;40.10;21.98;;;;;;;;;;5116009;28;20615;-52
2023/02/15 07:12:51;;;;;;;45.80;24.60;;;;;;;;;;5115849;28;20189;-56
2023/02/15 07:15:20;;;;;;;40.50;23.83;;;;;;;;;;5115746;28;20209;-56
2023/02/15 07:17:47;;;;;;;46.05;23.20;;;;;;;;;;5116128;28;20199;-57
2023/02/15 07:20:16;;;;;;;39.35;23.33;;;;;;;;;;5116011;28;20595;-57
2023/02/15 07:22:43;;;;;;;36.90;21.17;;;;;;;;;;5116064;28;20279;-57
2023/02/15 07:25:11;;;;;;;41.28;22.65;;;;;;;;;;5115872;28;20194;-57
2023/02/15 07:27:38;;;;;;;43.10;23.90;;;;;;;;;;5115726;28;20194;-56
2023/02/15 07:30:06;;;;;;;42.92;22.73;;;;;;;;;;5115708;28;20185;-56
2023/02/15 07:32:34;;;;;;;44.45;23.92;;;;;;;;;;5115716;28;20225;-52
2023/02/15 07:35:02;;;;;;;42.05;23.00;;;;;;;;;;5115718;28;20248;-57
2023/02/15 07:37:29;;;;;;;46.17;24.05;;;;;;;;;;5115819;28;20680;-57
2023/02/15 07:39:56;;;;;;;37.15;22.73;;;;;;;;;;5115661;28;20227;-57
2023/02/15 07:42:23;;;;;;;44.92;24.38;;;;;;;;;;5115532;28;20228;-57
2023/02/15 07:44:50;;;;;;;43.35;23.92;;;;;;;;;;5115527;28;20275;-57
2023/02/15 07:47:17;;;;;;;44.38;23.20;;;;;;;;;;5115721;28;20259;-57
2023/02/15 07:49:49;;;;;;;40.78;21.80;;;;;;;;;;5115565;28;20193;-56
2023/02/15 07:52:16;;;;;;;42.88;22.83;;;;;;;;;;5115544;28;20600;-57
2023/02/15 07:54:43;;;;;;;42.03;24.45;;;;;;;;;;5115236;28;20214;-58
2023/02/15 07:57:10;;;;;;;39.72;22.15;;;;;;;;;;5115333;28;20194;-58
2023/02/15 07:59:37;;;;;;;44.58;23.63;;;;;;;;;;5115127;28;20188;-57
2023/02/15 08:02:04;;;;;;;42.38;23.40;;;;;;;;;;5115220;28;20585;-57
2023/02/15 08:04:33;;;;;;;42.65;23.40;;;;;;;;;;5114903;28;20192;-56
2023/02/15 08:07:01;;;;;;;38.08;22.67;;;;;;;;;;5115097;28;20216;-57
2023/02/15 08:09:28;;;;;;;37.60;22.65;;;;;;;;;;5114883;28;20193;-58
2023/02/15 08:11:55;;;;;;;43.03;22.27;;;;;;;;;;5114992;28;20188;-56
2023/02/15 08:14:23;;;;;;;40.35;22.80;;;;;;;;;;5115236;28;20186;-57
2023/02/15 08:16:50;;;;;;;41.97;23.45;;;;;;;;;;5114990;28;20613;-57
2023/02/15 08:19:18;;;;;;;38.30;21.50;;;;;;;;;;5114967;28;20240;-56
2023/02/15 08:21:46;;;;;;;39.00;23.85;;;;;;;;;;5114718;28;20190;-59
2023/02/15 08:24:16;;;;;;;41.55;23.25;;;;;;;;;;5114722;28;20199;-58
2023/02/15 08:26:44;;;;;;;38.25;22.27;;;;;;;;;;5114835;28;20683;-58
2023/02/15 08:29:12;;;;;;;36.58;21.15;;;;;;;;;;5114822;28;20190;-54
2023/02/15 08:31:40;;;;;;;36.83;22.15;;;;;;;;;;5114564;28;20202;-56
2023/02/15 08:34:09;;;;;;;39.03;21.98;;;;;;;;;;5114583;28;20192;-58
2023/02/15 08:36:36;;;;;;;36.00;20.52;;;;;;;;;;5114329;28;20221;-57
2023/02/15 08:39:04;;;;;;;43.92;23.38;;;;;;;;;;5114412;28;20236;-58
2023/02/15 08:41:34;;;;;;;38.05;22.08;;;;;;;;;;5114293;28;20280;-58
2023/02/15 08:44:02;;;;;;;39.17;22.88;;;;;;;;;;5114453;28;20194;-57
2023/02/15 08:46:30;;;;;;;37.63;22.58;;;;;;;;;;5114102;28;20222;-55
2023/02/15 08:48:58;;;;;;;37.58;22.52;;;;;;;;;;5114261;28;20192;-58
2023/02/15 08:51:26;;;;;;;33.70;21.00;;;;;;;;;;5114417;28;20197;-57
2023/02/15 08:53:54;;;;;;;40.80;22.65;;;;;;;;;;5114351;28;20252;-58
2023/02/15 08:56:23;;;;;;;37.42;22.92;;;;;;;;;;5114088;28;20220;-58
2023/02/15 08:58:51;;;;;;;33.22;19.88;;;;;;;;;;5114076;28;20193;-57
2023/02/15 09:01:19;;;;;;;42.15;23.85;;;;;;;;;;5114064;28;20209;-55
2023/02/15 09:03:47;;;;;;;40.10;21.88;;;;;;;;;;5113798;28;20228;-58
2023/02/15 09:06:14;;;;;;;44.88;23.42;;;;;;;;;;5113889;28;20199;-57
2023/02/15 09:08:41;;;;;;;43.53;24.33;;;;;;;;;;5113872;28;20191;-56
2023/02/15 09:11:10;;;;;;;35.72;21.67;;;;;;;;;;5114006;28;20189;-56
2023/02/15 09:13:37;;;;;;;42.65;22.90;;;;;;;;;;5113875;28;20652;-58
2023/02/15 09:16:07;;;;;;;35.38;22.10;;;;;;;;;;5113659;28;20687;-57
2023/02/15 09:18:37;;;;;;;40.55;22.80;;;;;;;;;;5114060;28;20604;-57
2023/02/15 09:21:13;;;;;;;34.55;21.42;;;;;;;;;;5113403;28;20611;-56
2023/02/15 09:23:40;;;;;;;41.70;21.77;;;;;;;;;;5113838;28;20534;-57
2023/02/15 09:26:08;;;;;;;34.13;19.50;;;;;;;;;;5113769;28;20194;-58
2023/02/15 09:28:37;;;;;;;37.45;22.17;;;;;;;;;;5113665;28;20202;-58
2023/02/15 09:31:10;;;;;;;36.90;23.73;;;;;;;;;;5112800;28;20198;-57
2023/02/15 09:33:38;;;;;;;38.15;21.10;;;;;;;;;;5113764;28;20228;-57
2023/02/15 09:36:06;;;;;;;39.80;22.63;;;;;;;;;;5113635;28;20584;-58
2023/02/15 09:38:33;;;;;;;35.55;21.23;;;;;;;;;;5113504;28;20232;-57
2023/02/15 09:41:21;;;;;;;32.17;20.38;;;;;;;;;;5113575;28;20205;-55
2023/02/15 09:43:55;;;;;;;33.95;20.92;;;;;;;;;;5113484;28;20199;-57
2023/02/15 09:46:29;;;;;;;37.85;21.95;;;;;;;;;;5113435;28;20247;-57
2023/02/15 09:48:58;;;;;;;36.47;21.00;;;;;;;;;;5113482;28;20194;-56
2023/02/15 09:51:37;;;;;;;34.72;21.48;;;;;;;;;;5113131;28;20557;-56
2023/02/15 09:54:18;;;;;;;36.22;22.08;;;;;;;;;;5113400;28;20189;-58
2023/02/15 09:56:49;;;;;;;38.55;22.10;;;;;;;;;;5113158;28;20765;-57
2023/02/15 09:59:24;;;;;;;36.15;20.08;;;;;;;;;;5113347;28;20279;-58
2023/02/15 10:01:55;;;;;;;33.95;22.35;;;;;;;;;;5113138;28;20220;-57
2023/02/15 10:04:33;;;;;;;36.13;21.83;;;;;;;;;;5113475;28;20251;-55
2023/02/15 10:07:06;;;;;;;33.22;21.27;;;;;;;;;;5113235;28;20537;-56
2023/02/15 10:09:43;;;;;;;37.70;20.73;;;;;;;;;;5113149;28;20197;-60
2023/02/15 10:12:15;;;;;;;31.92;20.13;;;;;;;;;;5112981;28;20193;-58
2023/02/15 10:14:51;;;;;;;37.00;21.20;;;;;;;;;;5113198;28;20210;-61
2023/02/15 10:17:29;;;;;;;32.08;19.60;;;;;;;;;;5113126;28;20308;-61
2023/02/15 10:20:04;;;;;;;36.50;21.63;;;;;;;;;;5113120;28;20200;-60
2023/02/15 10:22:38;;;;;;;32.67;21.10;;;;;;;;;;5112742;28;20527;-61
2023/02/15 10:25:23;;;;;;;33.97;20.10;;;;;;;;;;5112695;28;20197;-57
2023/02/15 10:27:50;;;;;;;35.33;20.52;;;;;;;;;;5112826;28;20602;-60
2023/02/15 10:30:20;;;;;;;34.75;21.90;;;;;;;;;;5113031;28;20190;-60
2023/02/15 10:32:54;;;;;;;31.30;20.20;;;;;;;;;;5114819;28;20217;-59
2023/02/15 10:35:23;;;;;;;31.65;19.30;;;;;;;;;;5115399;28;20190;-61
2023/02/15 10:37:57;;;;;;;28.27;18.05;;;;;;;;;;5117027;28;20225;-59
2023/02/15 10:40:27;;;;;;;29.67;20.48;;;;;;;;;;5116849;28;20596;-68
2023/02/15 10:43:06;;;;;;;35.47;20.30;;;;;;;;;;5116458;28;20252;-65
2023/02/15 10:45:41;;;;;;;35.10;21.17;;;;;;;;;;5116322;28;20472;-61
2023/02/15 10:48:17;;;;;;;29.63;19.30;;;;;;;;;;5116505;28;20190;-65
2023/02/15 10:50:48;;;;;;;37.05;23.00;;;;;;;;;;5116714;28;20198;-66
2023/02/15 10:53:21;;;;;;;34.35;20.42;;;;;;;;;;5116531;28;20557;-62
2023/02/15 10:55:52;;;;;;;35.00;20.67;;;;;;;;;;5116435;28;20309;-61
2023/02/15 10:58:25;;;;;;;32.47;21.20;;;;;;;;;;5115550;28;20476;-60
2023/02/15 11:00:59;;;;;;;35.70;21.43;;;;;;;;;;5116187;28;20510;-59
2023/02/15 11:03:34;;;;;;;35.90;21.70;;;;;;;;;;5116287;28;20536;-60
2023/02/15 11:06:04;;;;;;;30.92;19.88;;;;;;;;;;5116293;28;20239;-63
2023/02/15 11:08:32;;;;;;;36.40;21.93;;;;;;;;;;5116022;28;20198;-64
2023/02/15 11:11:01;;;;;;;34.47;21.52;;;;;;;;;;5115870;28;20444;-60
2023/02/15 11:13:33;;;;;;;29.77;19.33;;;;;;;;;;5115330;28;20674;-59
2023/02/15 11:16:02;;;;;;;30.03;19.50;;;;;;;;;;5115762;28;20480;-59
2023/02/15 11:18:34;;;;;;;34.28;21.67;;;;;;;;;;5115882;28;20853;-60
2023/02/15 11:21:03;;;;;;;34.33;21.40;;;;;;;;;;5115801;28;20671;-59
2023/02/15 11:23:30;;;;;;;35.25;20.50;;;;;;;;;;5115611;28;20484;-60
2023/02/15 11:25:58;;;;;;;35.00;22.90;;;;;;;;;;5116002;28;20195;-59
2023/02/15 11:28:29;;;;;;;30.10;19.92;;;;;;;;;;5115725;28;20668;-60
2023/02/15 11:30:57;;;;;;;29.73;20.00;;;;;;;;;;5115865;28;20289;-60
2023/02/15 11:33:26;;;;;;;31.17;20.20;;;;;;;;;;5115569;28;20485;-59
2023/02/15 11:35:57;;;;;;;38.35;21.17;;;;;;;;;;5115447;28;20243;-59
2023/02/15 11:38:26;;;;;;;34.73;21.10;;;;;;;;;;5115719;28;20230;-60
2023/02/15 11:40:56;;;;;;;38.90;21.70;;;;;;;;;;5115490;28;20469;-59
2023/02/15 11:43:25;;;;;;;33.25;20.80;;;;;;;;;;5115191;28;20191;-60
2023/02/15 11:45:52;;;;;;;34.35;21.48;;;;;;;;;;5115027;28;20222;-62
2023/02/15 11:48:19;;;;;;;33.15;20.60;;;;;;;;;;5115129;28;20252;-61
2023/02/15 11:50:46;;;;;;;31.05;20.20;;;;;;;;;;5115205;28;20197;-60
2023/02/15 11:53:15;;;;;;;26.90;18.67;;;;;;;;;;5115163;28;20286;-60
2023/02/15 11:55:44;;;;;;;29.08;19.45;;;;;;;;;;5115253;28;20186;-62
2023/02/15 11:58:18;;;;;;;33.30;20.50;;;;;;;;;;5115474;28;20198;-62
2023/02/15 12:00:45;;;;;;;28.97;18.87;;;;;;;;;;5115224;28;20490;-62
2023/02/15 12:03:15;;;;;;;32.03;19.48;;;;;;;;;;5115231;28;20474;-65
2023/02/15 12:05:44;;;;;;;32.23;20.80;;;;;;;;;;5115268;28;20629;-65
2023/02/15 12:08:17;;;;;;;33.03;20.17;;;;;;;;;;5115057;28;20823;-66
2023/02/15 12:10:47;;;;;;;29.03;19.20;;;;;;;;;;5114878;28;20456;-61
2023/02/15 12:13:17;;;;;;;34.00;19.30;;;;;;;;;;5114819;28;20452;-61
2023/02/15 12:15:46;;;;;;;29.97;19.03;;;;;;;;;;5114661;28;20460;-64
2023/02/15 12:18:21;;;;;;;29.20;18.63;;;;;;;;;;5114658;28;21005;-62
2023/02/15 12:20:48;;;;;;;28.30;19.27;;;;;;;;;;5114578;28;20963;-60
2023/02/15 12:23:17;;;;;;;25.53;17.77;;;;;;;;;;5114747;28;20878;-61
2023/02/15 12:25:51;;;;;;;23.10;17.33;;;;;;;;;;5114562;28;20454;-65
2023/02/15 12:28:23;;;;;;;29.47;18.50;;;;;;;;;;5114813;28;20449;-63
2023/02/15 12:30:52;;;;;;;25.00;17.10;;;;;;;;;;5114450;28;20953;-62
2023/02/15 12:33:26;;;;;;;25.30;17.53;;;;;;;;;;5114605;28;20450;-63
2023/02/15 12:35:59;;;;;;;22.43;15.83;;;;;;;;;;5114425;28;21140;-62
2023/02/15 12:38:28;;;;;;;25.50;16.70;;;;;;;;;;5114274;28;20452;-62
2023/02/15 12:41:00;;;;;;;25.93;17.13;;;;;;;;;;5114383;28;20452;-64
2023/02/15 12:43:27;;;;;;;21.93;15.93;;;;;;;;;;5114142;28;20450;-60
2023/02/15 12:45:55;;;;;;;28.83;17.90;;;;;;;;;;5113968;28;20516;-59
2023/02/15 12:48:23;;;;;;;26.57;17.33;;;;;;;;;;5114086;28;20444;-59
2023/02/15 12:50:51;;;;;;;21.27;16.00;;;;;;;;;;5114151;28;20871;-57
2023/02/15 12:53:19;;;;;;;21.70;16.30;;;;;;;;;;5114206;28;20498;-59
2023/02/15 12:55:57;;;;;;;23.03;16.97;;;;;;;;;;5113438;28;20859;-62
2023/02/15 12:58:25;;;;;;;21.90;15.53;;;;;;;;;;5113875;28;20545;-61
2023/02/15 13:01:03;;;;;;;22.07;15.50;;;;;;;;;;5113926;28;20828;-63
2023/02/15 13:03:30;;;;;;;24.10;16.57;;;;;;;;;;5113939;28;20805;-64
2023/02/15 13:05:59;;;;;;;22.83;15.87;;;;;;;;;;5113880;28;20830;-63
2023/02/15 13:08:28;;;;;;;23.00;15.90;;;;;;;;;;5113768;28;20450;-62
2023/02/15 13:10:58;;;;;;;20.10;15.10;;;;;;;;;;5113989;28;20439;-61
2023/02/15 13:13:27;;;;;;;18.73;14.40;;;;;;;;;;5113997;28;20499;-60
2023/02/15 13:15:55;;;;;;;25.90;16.17;;;;;;;;;;5113559;28;20449;-60
2023/02/15 13:18:27;;;;;;;23.97;16.60;;;;;;;;;;5113944;28;20442;-59
2023/02/15 13:20:54;;;;;;;24.80;16.00;;;;;;;;;;5113847;28;20489;-60
2023/02/15 13:23:27;;;;;;;25.23;15.80;;;;;;;;;;5113663;28;20481;-59
2023/02/15 13:25:55;;;;;;;19.77;14.17;;;;;;;;;;5113550;28;20937;-68
2023/02/15 13:28:25;;;;;;;20.73;14.37;;;;;;;;;;5113198;28;20449;-61
2023/02/15 13:30:52;;;;;;;21.40;14.80;;;;;;;;;;5113623;28;20446;-62
2023/02/15 13:33:26;;;;;;;21.10;15.23;;;;;;;;;;5113555;28;20438;-61
2023/02/15 13:35:57;;;;;;;21.23;14.07;;;;;;;;;;5113298;28;20452;-61
2023/02/15 13:38:32;;;;;;;19.27;13.90;;;;;;;;;;5113312;28;20477;-59
2023/02/15 13:41:01;;;;;;;17.47;13.77;;;;;;;;;;5113536;28;20476;-60
2023/02/15 13:43:35;;;;;;;18.83;12.73;;;;;;;;;;5113530;28;20468;-60
2023/02/15 13:46:08;;;;;;;19.40;13.60;;;;;;;;;;5113166;28;20481;-60
2023/02/15 13:48:42;;;;;;;17.33;11.93;;;;;;;;;;5113585;28;20558;-59
2023/02/15 13:51:12;;;;;;;17.40;13.50;;;;;;;;;;5113031;28;20447;-59
2023/02/15 13:53:45;;;;;;;14.47;11.43;;;;;;;;;;5113262;28;20783;-60
2023/02/15 13:56:16;;;;;;;15.00;12.50;;;;;;;;;;5113161;28;20851;-59
2023/02/15 13:58:59;;;;;;;16.40;11.87;;;;;;;;;;5113195;28;20482;-60
2023/02/15 14:01:31;;;;;;;15.30;10.97;;;;;;;;;;5113007;28;20492;-60
2023/02/15 14:04:13;;;;;;;18.70;12.87;;;;;;;;;;5113310;28;20446;-60
2023/02/15 14:06:50;;;;;;;14.50;11.57;;;;;;;;;;5113065;28;20469;-62
2023/02/15 14:09:23;;;;;;;24.67;16.23;;;;;;;;;;5116970;28;20846;-64
2023/02/15 14:11:54;;;;;;;20.23;14.07;;;;;;;;;;5117060;28;20544;-63
2023/02/15 14:14:32;;;;;;;15.50;11.07;;;;;;;;;;5117017;28;20442;-63
2023/02/15 14:17:04;;;;;;;13.57;10.33;;;;;;;;;;5117219;28;20881;-61
2023/02/15 14:19:35;;;;;;;14.60;10.27;;;;;;;;;;5117263;28;20449;-61
2023/02/15 14:22:09;;;;;;;29.80;20.27;;;;;;;;;;5117110;28;20478;-61
2023/02/15 14:24:40;;;;;;;13.30;10.43;;;;;;;;;;5116817;28;20461;-61
2023/02/15 14:27:12;;;;;;;12.73;9.80;;;;;;;;;;5116905;28;20450;-61
2023/02/15 14:29:48;;;;;;;14.87;10.57;;;;;;;;;;5117025;28;20450;-61
2023/02/15 14:32:16;;;;;;;12.53;9.83;;;;;;;;;;5116821;28;20449;-61
2023/02/15 14:34:46;;;;;;;11.20;9.73;;;;;;;;;;5116757;28;20449;-61
2023/02/15 14:37:13;;;;;;;12.40;10.03;;;;;;;;;;5116832;28;20487;-61
2023/02/15 14:42:35;;;;;;;14.60;10.43;;;;;;;;;;5116905;28;20515;-60
2023/02/15 14:45:06;;;;;;;12.00;9.67;;;;;;;;;;5116512;28;20475;-61
2023/02/15 14:47:37;;;;;;;11.97;9.53;;;;;;;;;;5116744;28;20450;-59
2023/02/15 14:50:19;;;;;;;11.53;9.80;;;;;;;;;;5116789;28;20511;-60
2023/02/15 14:53:00;;;;;;;11.83;10.17;;;;;;;;;;5115654;28;21009;-59